sensor_id;sensor_type;location;lat;lon;timestamp;P1;durP1;ratioP1;P2;durP2;ratioP2
27424;SDS011;15244;49.088;11.886;2024-01-10T00:03:18;30.58;;;15.77;;
27424;SDS011;15244;49.088;11.886;2024-01-10T00:08:20;32.60;;;15.88;;
27424;SDS011;15244;49.088;11.886;2024-01-10T00:13:22;36.72;;;16.23;;
27424;SDS011;15244;49.088;11.886;2024-01-10T00:18:24;29.02;;;14.38;;
27424;SDS011;15244;49.088;11.886;2024-01-10T00:23:26;29.67;;;15.45;;
27424;SDS011;15244;49.088;11.886;2024-01-10T00:28:28;32.58;;;15.25;;
27424;SDS011;15244;49.088;11.886;2024-01-10T00:33:29;28.67;;;15.52;;
27424;SDS011;15244;49.088;11.886;2024-01-10T00:38:31;30.60;;;14.85;;
27424;SDS011;15244;49.088;11.886;2024-01-10T00:43:33;28.70;;;15.05;;
27424;SDS011;15244;49.088;11.886;2024-01-10T00:48:35;31.13;;;15.77;;
27424;SDS011;15244;49.088;11.886;2024-01-10T00:53:36;29.55;;;15.38;;
27424;SDS011;15244;49.088;11.886;2024-01-10T00:58:40;27.50;;;15.23;;
27424;SDS011;15244;49.088;11.886;2024-01-10T01:03:42;25.38;;;14.30;;
27424;SDS011;15244;49.088;11.886;2024-01-10T01:08:44;31.90;;;16.38;;
27424;SDS011;15244;49.088;11.886;2024-01-10T01:13:46;29.60;;;15.18;;
27424;SDS011;15244;49.088;11.886;2024-01-10T01:18:47;31.30;;;15.77;;
27424;SDS011;15244;49.088;11.886;2024-01-10T01:23:49;32.85;;;16.08;;
27424;SDS011;15244;49.088;11.886;2024-01-10T01:28:50;33.35;;;16.00;;
27424;SDS011;15244;49.088;11.886;2024-01-10T01:33:52;29.77;;;14.82;;
27424;SDS011;15244;49.088;11.886;2024-01-10T01:38:54;36.33;;;15.93;;
27424;SDS011;15244;49.088;11.886;2024-01-10T01:43:55;32.92;;;16.25;;
27424;SDS011;15244;49.088;11.886;2024-01-10T01:48:57;31.33;;;16.02;;
27424;SDS011;15244;49.088;11.886;2024-01-10T01:54:00;29.77;;;14.60;;
27424;SDS011;15244;49.088;11.886;2024-01-10T01:59:02;34.95;;;16.00;;
27424;SDS011;15244;49.088;11.886;2024-01-10T02:04:05;32.50;;;16.63;;
27424;SDS011;15244;49.088;11.886;2024-01-10T02:09:07;28.23;;;15.55;;
27424;SDS011;15244;49.088;11.886;2024-01-10T02:14:10;32.42;;;15.73;;
27424;SDS011;15244;49.088;11.886;2024-01-10T02:19:19;32.65;;;16.70;;
27424;SDS011;15244;49.088;11.886;2024-01-10T02:24:24;31.95;;;14.95;;
27424;SDS011;15244;49.088;11.886;2024-01-10T02:29:25;32.17;;;15.98;;
27424;SDS011;15244;49.088;11.886;2024-01-10T02:34:29;33.17;;;15.45;;
27424;SDS011;15244;49.088;11.886;2024-01-10T02:39:31;31.58;;;16.02;;
27424;SDS011;15244;49.088;11.886;2024-01-10T02:44:32;28.85;;;15.95;;
27424;SDS011;15244;49.088;11.886;2024-01-10T02:49:34;30.08;;;15.88;;
27424;SDS011;15244;49.088;11.886;2024-01-10T02:54:35;32.80;;;15.95;;
27424;SDS011;15244;49.088;11.886;2024-01-10T02:59:37;33.55;;;16.27;;
27424;SDS011;15244;49.088;11.886;2024-01-10T03:04:40;29.73;;;15.85;;
27424;SDS011;15244;49.088;11.886;2024-01-10T03:09:41;29.83;;;16.25;;
27424;SDS011;15244;49.088;11.886;2024-01-10T03:14:44;32.55;;;16.27;;
27424;SDS011;15244;49.088;11.886;2024-01-10T03:19:46;34.90;;;17.17;;
27424;SDS011;15244;49.088;11.886;2024-01-10T03:24:48;31.25;;;16.08;;
27424;SDS011;15244;49.088;11.886;2024-01-10T03:29:49;32.65;;;16.95;;
27424;SDS011;15244;49.088;11.886;2024-01-10T03:34:51;34.35;;;16.27;;
27424;SDS011;15244;49.088;11.886;2024-01-10T03:39:53;41.00;;;17.42;;
27424;SDS011;15244;49.088;11.886;2024-01-10T03:44:55;29.17;;;15.63;;
27424;SDS011;15244;49.088;11.886;2024-01-10T03:49:56;32.30;;;16.63;;
27424;SDS011;15244;49.088;11.886;2024-01-10T03:54:58;30.73;;;15.93;;
27424;SDS011;15244;49.088;11.886;2024-01-10T04:00:00;33.50;;;16.42;;
27424;SDS011;15244;49.088;11.886;2024-01-10T04:05:02;35.97;;;16.45;;
27424;SDS011;15244;49.088;11.886;2024-01-10T04:10:04;32.10;;;15.18;;
27424;SDS011;15244;49.088;11.886;2024-01-10T04:15:08;30.15;;;16.60;;
27424;SDS011;15244;49.088;11.886;2024-01-10T04:20:10;33.63;;;16.23;;
27424;SDS011;15244;49.088;11.886;2024-01-10T04:25:12;32.30;;;16.48;;
27424;SDS011;15244;49.088;11.886;2024-01-10T04:30:14;38.13;;;17.23;;
27424;SDS011;15244;49.088;11.886;2024-01-10T04:35:15;33.70;;;16.23;;
27424;SDS011;15244;49.088;11.886;2024-01-10T04:40:17;37.78;;;17.30;;
27424;SDS011;15244;49.088;11.886;2024-01-10T04:45:19;37.45;;;16.27;;
27424;SDS011;15244;49.088;11.886;2024-01-10T04:50:20;34.10;;;16.00;;
27424;SDS011;15244;49.088;11.886;2024-01-10T04:55:22;35.90;;;17.23;;
27424;SDS011;15244;49.088;11.886;2024-01-10T05:00:23;34.90;;;17.52;;
27424;SDS011;15244;49.088;11.886;2024-01-10T05:05:25;40.38;;;17.40;;
27424;SDS011;15244;49.088;11.886;2024-01-10T05:10:27;32.38;;;16.27;;
27424;SDS011;15244;49.088;11.886;2024-01-10T05:15:28;40.80;;;17.40;;
27424;SDS011;15244;49.088;11.886;2024-01-10T05:20:30;35.38;;;16.85;;
27424;SDS011;15244;49.088;11.886;2024-01-10T05:25:33;39.08;;;17.70;;
27424;SDS011;15244;49.088;11.886;2024-01-10T05:30:35;36.08;;;17.33;;
27424;SDS011;15244;49.088;11.886;2024-01-10T05:35:38;40.40;;;19.08;;
27424;SDS011;15244;49.088;11.886;2024-01-10T05:40:40;36.38;;;17.52;;
27424;SDS011;15244;49.088;11.886;2024-01-10T05:45:41;40.33;;;19.60;;
27424;SDS011;15244;49.088;11.886;2024-01-10T05:50:43;40.03;;;18.92;;
27424;SDS011;15244;49.088;11.886;2024-01-10T05:55:45;38.08;;;18.52;;
27424;SDS011;15244;49.088;11.886;2024-01-10T06:00:46;35.97;;;18.08;;
27424;SDS011;15244;49.088;11.886;2024-01-10T06:05:48;39.97;;;18.35;;
27424;SDS011;15244;49.088;11.886;2024-01-10T06:10:50;40.75;;;18.85;;
27424;SDS011;15244;49.088;11.886;2024-01-10T06:15:52;37.83;;;18.15;;
27424;SDS011;15244;49.088;11.886;2024-01-10T06:20:53;40.03;;;19.77;;
27424;SDS011;15244;49.088;11.886;2024-01-10T06:25:55;40.97;;;19.23;;
27424;SDS011;15244;49.088;11.886;2024-01-10T06:30:57;36.78;;;18.80;;
27424;SDS011;15244;49.088;11.886;2024-01-10T06:35:58;37.28;;;18.50;;
27424;SDS011;15244;49.088;11.886;2024-01-10T06:41:00;39.25;;;18.13;;
27424;SDS011;15244;49.088;11.886;2024-01-10T06:46:02;42.88;;;20.35;;
27424;SDS011;15244;49.088;11.886;2024-01-10T06:51:06;39.30;;;18.58;;
27424;SDS011;15244;49.088;11.886;2024-01-10T06:56:12;35.42;;;18.77;;
27424;SDS011;15244;49.088;11.886;2024-01-10T07:01:13;38.47;;;18.63;;
27424;SDS011;15244;49.088;11.886;2024-01-10T07:06:16;41.28;;;20.50;;
27424;SDS011;15244;49.088;11.886;2024-01-10T07:11:17;38.65;;;19.65;;
27424;SDS011;15244;49.088;11.886;2024-01-10T07:16:21;40.42;;;18.23;;
27424;SDS011;15244;49.088;11.886;2024-01-10T07:21:23;38.08;;;18.85;;
27424;SDS011;15244;49.088;11.886;2024-01-10T07:26:25;40.08;;;19.33;;
27424;SDS011;15244;49.088;11.886;2024-01-10T07:31:29;44.15;;;19.63;;
27424;SDS011;15244;49.088;11.886;2024-01-10T07:36:31;41.17;;;19.90;;
27424;SDS011;15244;49.088;11.886;2024-01-10T07:41:35;39.67;;;19.10;;
27424;SDS011;15244;49.088;11.886;2024-01-10T07:46:36;44.15;;;20.20;;
27424;SDS011;15244;49.088;11.886;2024-01-10T07:51:39;41.63;;;21.40;;
27424;SDS011;15244;49.088;11.886;2024-01-10T07:56:41;38.45;;;18.83;;
27424;SDS011;15244;49.088;11.886;2024-01-10T08:01:54;36.75;;;19.35;;
27424;SDS011;15244;49.088;11.886;2024-01-10T08:06:58;42.33;;;19.75;;
27424;SDS011;15244;49.088;11.886;2024-01-10T08:12:00;39.88;;;21.08;;
27424;SDS011;15244;49.088;11.886;2024-01-10T08:17:01;44.70;;;20.70;;
27424;SDS011;15244;49.088;11.886;2024-01-10T08:22:03;40.17;;;19.65;;
27424;SDS011;15244;49.088;11.886;2024-01-10T08:27:05;37.60;;;18.65;;
27424;SDS011;15244;49.088;11.886;2024-01-10T08:32:07;35.80;;;19.15;;
27424;SDS011;15244;49.088;11.886;2024-01-10T08:37:09;37.92;;;19.60;;
27424;SDS011;15244;49.088;11.886;2024-01-10T08:42:10;42.05;;;20.30;;
27424;SDS011;15244;49.088;11.886;2024-01-10T08:47:12;41.42;;;20.40;;
27424;SDS011;15244;49.088;11.886;2024-01-10T08:52:15;40.35;;;19.58;;
27424;SDS011;15244;49.088;11.886;2024-01-10T08:57:16;41.83;;;19.65;;
27424;SDS011;15244;49.088;11.886;2024-01-10T09:02:18;40.63;;;20.00;;
27424;SDS011;15244;49.088;11.886;2024-01-10T09:07:20;43.30;;;20.38;;
27424;SDS011;15244;49.088;11.886;2024-01-10T09:12:23;41.05;;;19.95;;
27424;SDS011;15244;49.088;11.886;2024-01-10T09:17:25;39.78;;;19.77;;
27424;SDS011;15244;49.088;11.886;2024-01-10T09:22:26;41.65;;;19.38;;
27424;SDS011;15244;49.088;11.886;2024-01-10T09:27:30;40.00;;;20.33;;
27424;SDS011;15244;49.088;11.886;2024-01-10T09:32:32;40.90;;;21.70;;
27424;SDS011;15244;49.088;11.886;2024-01-10T09:37:33;42.55;;;20.67;;
27424;SDS011;15244;49.088;11.886;2024-01-10T09:42:35;40.00;;;20.83;;
27424;SDS011;15244;49.088;11.886;2024-01-10T09:47:39;47.47;;;21.23;;
27424;SDS011;15244;49.088;11.886;2024-01-10T09:52:50;42.65;;;19.90;;
27424;SDS011;15244;49.088;11.886;2024-01-10T09:57:53;42.28;;;20.15;;
27424;SDS011;15244;49.088;11.886;2024-01-10T10:02:54;42.53;;;19.90;;
27424;SDS011;15244;49.088;11.886;2024-01-10T10:07:59;43.33;;;20.13;;
27424;SDS011;15244;49.088;11.886;2024-01-10T10:13:00;43.17;;;21.42;;
27424;SDS011;15244;49.088;11.886;2024-01-10T10:18:03;43.15;;;21.17;;
27424;SDS011;15244;49.088;11.886;2024-01-10T10:23:06;41.88;;;19.85;;
27424;SDS011;15244;49.088;11.886;2024-01-10T10:28:12;42.35;;;19.17;;
27424;SDS011;15244;49.088;11.886;2024-01-10T10:33:31;40.88;;;19.42;;
27424;SDS011;15244;49.088;11.886;2024-01-10T10:38:34;39.90;;;19.35;;
27424;SDS011;15244;49.088;11.886;2024-01-10T10:43:38;45.33;;;20.98;;
27424;SDS011;15244;49.088;11.886;2024-01-10T10:48:41;37.45;;;18.52;;
27424;SDS011;15244;49.088;11.886;2024-01-10T10:53:44;34.55;;;17.88;;
27424;SDS011;15244;49.088;11.886;2024-01-10T10:58:47;38.53;;;17.75;;
27424;SDS011;15244;49.088;11.886;2024-01-10T11:03:50;33.47;;;18.00;;
27424;SDS011;15244;49.088;11.886;2024-01-10T11:08:57;33.00;;;17.38;;
27424;SDS011;15244;49.088;11.886;2024-01-10T11:14:21;33.60;;;18.90;;
27424;SDS011;15244;49.088;11.886;2024-01-10T11:30:13;39.20;;;19.77;;
27424;SDS011;15244;49.088;11.886;2024-01-10T11:35:33;35.30;;;18.60;;
27424;SDS011;15244;49.088;11.886;2024-01-10T11:40:47;39.08;;;19.40;;
27424;SDS011;15244;49.088;11.886;2024-01-10T11:45:55;36.90;;;19.67;;
27424;SDS011;15244;49.088;11.886;2024-01-10T11:50:57;33.38;;;18.95;;
27424;SDS011;15244;49.088;11.886;2024-01-10T11:56:00;33.90;;;18.50;;
27424;SDS011;15244;49.088;11.886;2024-01-10T12:01:12;34.45;;;18.83;;
27424;SDS011;15244;49.088;11.886;2024-01-10T12:06:14;33.72;;;18.58;;
27424;SDS011;15244;49.088;11.886;2024-01-10T12:11:17;38.05;;;20.15;;
27424;SDS011;15244;49.088;11.886;2024-01-10T12:16:19;35.85;;;19.33;;
27424;SDS011;15244;49.088;11.886;2024-01-10T12:21:21;30.27;;;18.25;;
27424;SDS011;15244;49.088;11.886;2024-01-10T12:26:23;35.35;;;18.60;;
27424;SDS011;15244;49.088;11.886;2024-01-10T12:31:28;35.42;;;18.92;;
27424;SDS011;15244;49.088;11.886;2024-01-10T12:36:30;34.60;;;17.67;;
27424;SDS011;15244;49.088;11.886;2024-01-10T12:41:32;32.78;;;18.30;;
27424;SDS011;15244;49.088;11.886;2024-01-10T12:46:35;29.40;;;17.70;;
27424;SDS011;15244;49.088;11.886;2024-01-10T12:51:37;33.90;;;18.45;;
27424;SDS011;15244;49.088;11.886;2024-01-10T12:56:38;37.38;;;18.73;;
27424;SDS011;15244;49.088;11.886;2024-01-10T13:01:40;29.70;;;17.63;;
27424;SDS011;15244;49.088;11.886;2024-01-10T13:06:43;31.80;;;18.25;;
27424;SDS011;15244;49.088;11.886;2024-01-10T13:11:45;35.08;;;18.52;;
27424;SDS011;15244;49.088;11.886;2024-01-10T13:16:47;28.65;;;17.65;;
27424;SDS011;15244;49.088;11.886;2024-01-10T13:22:00;34.58;;;19.20;;
27424;SDS011;15244;49.088;11.886;2024-01-10T13:27:05;40.35;;;18.90;;
27424;SDS011;15244;49.088;11.886;2024-01-10T13:32:06;40.83;;;20.27;;
27424;SDS011;15244;49.088;11.886;2024-01-10T13:37:08;32.42;;;17.83;;
27424;SDS011;15244;49.088;11.886;2024-01-10T13:42:11;32.90;;;18.65;;
27424;SDS011;15244;49.088;11.886;2024-01-10T13:47:13;35.15;;;18.70;;
27424;SDS011;15244;49.088;11.886;2024-01-10T13:52:14;41.17;;;19.60;;
27424;SDS011;15244;49.088;11.886;2024-01-10T13:57:16;36.08;;;18.98;;
27424;SDS011;15244;49.088;11.886;2024-01-10T14:02:18;35.25;;;19.38;;
27424;SDS011;15244;49.088;11.886;2024-01-10T14:07:21;38.80;;;18.73;;
27424;SDS011;15244;49.088;11.886;2024-01-10T14:12:22;34.63;;;18.67;;
27424;SDS011;15244;49.088;11.886;2024-01-10T14:17:24;31.30;;;17.08;;
27424;SDS011;15244;49.088;11.886;2024-01-10T14:22:25;33.75;;;19.08;;
27424;SDS011;15244;49.088;11.886;2024-01-10T14:27:33;32.35;;;18.48;;
27424;SDS011;15244;49.088;11.886;2024-01-10T14:32:35;34.33;;;19.38;;
27424;SDS011;15244;49.088;11.886;2024-01-10T14:37:38;38.60;;;19.13;;
27424;SDS011;15244;49.088;11.886;2024-01-10T14:42:39;32.20;;;19.02;;
27424;SDS011;15244;49.088;11.886;2024-01-10T14:47:41;35.05;;;19.27;;
27424;SDS011;15244;49.088;11.886;2024-01-10T14:52:43;32.10;;;18.42;;
27424;SDS011;15244;49.088;11.886;2024-01-10T14:57:44;37.80;;;19.77;;
27424;SDS011;15244;49.088;11.886;2024-01-10T15:02:46;34.42;;;18.50;;
27424;SDS011;15244;49.088;11.886;2024-01-10T15:07:48;34.00;;;18.52;;
27424;SDS011;15244;49.088;11.886;2024-01-10T15:12:50;36.00;;;19.90;;
27424;SDS011;15244;49.088;11.886;2024-01-10T15:17:51;35.38;;;19.75;;
27424;SDS011;15244;49.088;11.886;2024-01-10T15:22:53;39.47;;;20.05;;
27424;SDS011;15244;49.088;11.886;2024-01-10T15:27:54;37.13;;;19.33;;
27424;SDS011;15244;49.088;11.886;2024-01-10T15:32:57;35.33;;;20.20;;
27424;SDS011;15244;49.088;11.886;2024-01-10T15:37:59;37.72;;;20.00;;
27424;SDS011;15244;49.088;11.886;2024-01-10T15:43:01;34.25;;;20.08;;
27424;SDS011;15244;49.088;11.886;2024-01-10T15:48:03;34.88;;;19.63;;
27424;SDS011;15244;49.088;11.886;2024-01-10T15:53:07;35.10;;;19.23;;
27424;SDS011;15244;49.088;11.886;2024-01-10T15:58:09;38.78;;;20.85;;
27424;SDS011;15244;49.088;11.886;2024-01-10T16:03:10;46.45;;;21.10;;
27424;SDS011;15244;49.088;11.886;2024-01-10T16:08:12;39.03;;;20.33;;
27424;SDS011;15244;49.088;11.886;2024-01-10T16:13:14;37.58;;;19.90;;
27424;SDS011;15244;49.088;11.886;2024-01-10T16:18:16;38.70;;;20.60;;
27424;SDS011;15244;49.088;11.886;2024-01-10T16:23:18;48.45;;;21.17;;
27424;SDS011;15244;49.088;11.886;2024-01-10T16:28:20;38.72;;;20.67;;
27424;SDS011;15244;49.088;11.886;2024-01-10T16:33:21;43.40;;;21.73;;
27424;SDS011;15244;49.088;11.886;2024-01-10T16:38:23;44.03;;;23.40;;
27424;SDS011;15244;49.088;11.886;2024-01-10T16:43:25;41.50;;;22.40;;
27424;SDS011;15244;49.088;11.886;2024-01-10T16:48:28;43.05;;;23.77;;
27424;SDS011;15244;49.088;11.886;2024-01-10T16:53:30;47.67;;;24.67;;
27424;SDS011;15244;49.088;11.886;2024-01-10T16:58:32;48.92;;;24.73;;
27424;SDS011;15244;49.088;11.886;2024-01-10T17:03:33;44.78;;;23.88;;
27424;SDS011;15244;49.088;11.886;2024-01-10T17:08:35;48.33;;;24.33;;
27424;SDS011;15244;49.088;11.886;2024-01-10T17:13:36;50.25;;;24.52;;
27424;SDS011;15244;49.088;11.886;2024-01-10T17:18:38;53.22;;;25.40;;
27424;SDS011;15244;49.088;11.886;2024-01-10T17:23:40;56.83;;;27.90;;
27424;SDS011;15244;49.088;11.886;2024-01-10T17:28:41;50.60;;;26.23;;
27424;SDS011;15244;49.088;11.886;2024-01-10T17:33:43;53.15;;;25.80;;
27424;SDS011;15244;49.088;11.886;2024-01-10T17:38:45;58.00;;;27.17;;
27424;SDS011;15244;49.088;11.886;2024-01-10T17:43:47;53.03;;;26.58;;
27424;SDS011;15244;49.088;11.886;2024-01-10T17:48:49;55.15;;;27.08;;
27424;SDS011;15244;49.088;11.886;2024-01-10T17:53:53;56.85;;;27.88;;
27424;SDS011;15244;49.088;11.886;2024-01-10T17:58:56;49.30;;;25.05;;
27424;SDS011;15244;49.088;11.886;2024-01-10T18:03:57;54.75;;;27.35;;
27424;SDS011;15244;49.088;11.886;2024-01-10T18:09:13;56.30;;;25.73;;
27424;SDS011;15244;49.088;11.886;2024-01-10T18:14:17;53.10;;;27.17;;
27424;SDS011;15244;49.088;11.886;2024-01-10T18:19:19;52.05;;;27.02;;
27424;SDS011;15244;49.088;11.886;2024-01-10T18:24:20;51.47;;;27.45;;
27424;SDS011;15244;49.088;11.886;2024-01-10T18:29:22;53.40;;;26.63;;
27424;SDS011;15244;49.088;11.886;2024-01-10T18:34:24;56.58;;;27.23;;
27424;SDS011;15244;49.088;11.886;2024-01-10T18:39:26;49.83;;;26.13;;
27424;SDS011;15244;49.088;11.886;2024-01-10T18:44:27;50.05;;;26.55;;
27424;SDS011;15244;49.088;11.886;2024-01-10T18:49:29;53.05;;;26.00;;
27424;SDS011;15244;49.088;11.886;2024-01-10T18:54:31;52.58;;;26.63;;
27424;SDS011;15244;49.088;11.886;2024-01-10T18:59:33;55.65;;;28.88;;
27424;SDS011;15244;49.088;11.886;2024-01-10T19:04:35;56.40;;;27.50;;
27424;SDS011;15244;49.088;11.886;2024-01-10T19:09:37;58.60;;;29.67;;
27424;SDS011;15244;49.088;11.886;2024-01-10T19:14:38;61.50;;;29.75;;
27424;SDS011;15244;49.088;11.886;2024-01-10T19:19:40;54.13;;;27.77;;
27424;SDS011;15244;49.088;11.886;2024-01-10T19:24:41;56.72;;;28.13;;
27424;SDS011;15244;49.088;11.886;2024-01-10T19:29:43;51.83;;;27.42;;
27424;SDS011;15244;49.088;11.886;2024-01-10T19:34:45;57.90;;;28.38;;
27424;SDS011;15244;49.088;11.886;2024-01-10T19:39:47;52.53;;;27.77;;
27424;SDS011;15244;49.088;11.886;2024-01-10T19:44:50;59.30;;;28.58;;
27424;SDS011;15244;49.088;11.886;2024-01-10T19:49:51;60.42;;;29.33;;
27424;SDS011;15244;49.088;11.886;2024-01-10T19:54:53;58.90;;;28.88;;
27424;SDS011;15244;49.088;11.886;2024-01-10T19:59:55;52.13;;;29.15;;
27424;SDS011;15244;49.088;11.886;2024-01-10T20:04:57;56.30;;;28.88;;
27424;SDS011;15244;49.088;11.886;2024-01-10T20:09:59;53.13;;;27.70;;
27424;SDS011;15244;49.088;11.886;2024-01-10T20:15:01;53.92;;;27.83;;
27424;SDS011;15244;49.088;11.886;2024-01-10T20:20:03;58.13;;;29.90;;
27424;SDS011;15244;49.088;11.886;2024-01-10T20:25:06;63.10;;;29.60;;
27424;SDS011;15244;49.088;11.886;2024-01-10T20:30:08;56.90;;;30.45;;
27424;SDS011;15244;49.088;11.886;2024-01-10T20:35:10;62.10;;;30.23;;
27424;SDS011;15244;49.088;11.886;2024-01-10T20:40:12;61.42;;;30.60;;
27424;SDS011;15244;49.088;11.886;2024-01-10T20:45:14;58.83;;;30.77;;
27424;SDS011;15244;49.088;11.886;2024-01-10T20:50:18;58.80;;;28.65;;
27424;SDS011;15244;49.088;11.886;2024-01-10T20:55:20;57.88;;;29.20;;
27424;SDS011;15244;49.088;11.886;2024-01-10T21:00:22;61.00;;;29.42;;
27424;SDS011;15244;49.088;11.886;2024-01-10T21:05:24;57.17;;;28.23;;
27424;SDS011;15244;49.088;11.886;2024-01-10T21:10:26;50.08;;;26.05;;
27424;SDS011;15244;49.088;11.886;2024-01-10T21:15:27;57.22;;;28.52;;
27424;SDS011;15244;49.088;11.886;2024-01-10T21:20:29;59.95;;;29.92;;
27424;SDS011;15244;49.088;11.886;2024-01-10T21:25:34;58.53;;;28.67;;
27424;SDS011;15244;49.088;11.886;2024-01-10T21:30:36;54.55;;;27.70;;
27424;SDS011;15244;49.088;11.886;2024-01-10T21:35:38;54.28;;;27.83;;
27424;SDS011;15244;49.088;11.886;2024-01-10T21:40:39;53.35;;;28.58;;
27424;SDS011;15244;49.088;11.886;2024-01-10T21:45:41;53.33;;;26.38;;
27424;SDS011;15244;49.088;11.886;2024-01-10T21:50:42;57.63;;;26.67;;
27424;SDS011;15244;49.088;11.886;2024-01-10T21:55:44;61.63;;;28.92;;
27424;SDS011;15244;49.088;11.886;2024-01-10T22:00:46;56.38;;;27.55;;
27424;SDS011;15244;49.088;11.886;2024-01-10T22:05:48;56.42;;;28.52;;
27424;SDS011;15244;49.088;11.886;2024-01-10T22:10:51;59.22;;;27.90;;
27424;SDS011;15244;49.088;11.886;2024-01-10T22:15:53;56.58;;;29.02;;
27424;SDS011;15244;49.088;11.886;2024-01-10T22:20:55;55.08;;;27.60;;
27424;SDS011;15244;49.088;11.886;2024-01-10T22:25:57;58.83;;;28.75;;
27424;SDS011;15244;49.088;11.886;2024-01-10T22:30:58;57.72;;;28.42;;
27424;SDS011;15244;49.088;11.886;2024-01-10T22:36:00;60.75;;;28.75;;
27424;SDS011;15244;49.088;11.886;2024-01-10T22:41:02;60.03;;;29.23;;
27424;SDS011;15244;49.088;11.886;2024-01-10T22:46:04;54.33;;;26.75;;
27424;SDS011;15244;49.088;11.886;2024-01-10T22:51:06;57.58;;;28.10;;
27424;SDS011;15244;49.088;11.886;2024-01-10T22:56:07;52.45;;;27.65;;
27424;SDS011;15244;49.088;11.886;2024-01-10T23:01:09;53.60;;;27.27;;
27424;SDS011;15244;49.088;11.886;2024-01-10T23:06:11;52.85;;;27.77;;
27424;SDS011;15244;49.088;11.886;2024-01-10T23:11:13;56.10;;;28.20;;
27424;SDS011;15244;49.088;11.886;2024-01-10T23:16:14;53.13;;;27.42;;
27424;SDS011;15244;49.088;11.886;2024-01-10T23:21:16;52.03;;;27.95;;
27424;SDS011;15244;49.088;11.886;2024-01-10T23:26:19;51.95;;;27.85;;
27424;SDS011;15244;49.088;11.886;2024-01-10T23:31:21;51.80;;;26.05;;
27424;SDS011;15244;49.088;11.886;2024-01-10T23:36:23;56.33;;;27.35;;
27424;SDS011;15244;49.088;11.886;2024-01-10T23:41:25;54.85;;;26.58;;
27424;SDS011;15244;49.088;11.886;2024-01-10T23:46:26;56.13;;;28.23;;
27424;SDS011;15244;49.088;11.886;2024-01-10T23:51:28;56.65;;;27.50;;
27424;SDS011;15244;49.088;11.886;2024-01-10T23:56:29;54.28;;;27.52;;
